Ruidoso, NM (88345)

9:04 AM MST on December 19, 2014 (GMT -0700)
The Beer Garden | Change Station
CLOSE
Current Station
Personal Weather Station
Location: Ruidoso, NM
Elevation: 6745 ft
Nearby Weather Stations

Elev 6745 ft 33.34 °N, 105.67 °W | Updated 2 seconds ago

Clear
Clear
28.2 °F
Feels Like 28 °F
N
1.3
Wind Variable Wind from SSW
Gusts 1.3 mph

Today
High -- | Low -- °F
--% Chance of Precip.
Yesterday
High -- | Low -- °F
Precip. -- in
7:01 AM 4:58 PM
Waning Crescent, 7% visible
Pressure 30.20 in
Visibility 10.0 miles
Clouds Clear
Windchill 28 °F
Dew Point 26 °F
Humidity 92%
Rainfall 0.00 in
Snow Depth Not available.
UV 1 out of 12
Pollen 7.00 out of 12
Air Quality Not available.
Flu Activity Not available.
METAR KSRR 191555Z AUTO 32011KT 10SM CLR 00/M05 A3020 RMK AO2

More Conditions Fewer Conditions

Pressure 30.20 in
Visibility 10.0 miles
Clouds Clear
Windchill 28 °F
Dew Point 26 °F
Humidity 92%
Rainfall 0.00 in
Snow Depth Not available.
UV 1 out of 12
Pollen 7.00 out of 12
Air Quality Not available.
Flu Activity Not available.
METAR KSRR 191555Z AUTO 32011KT 10SM CLR 00/M05 A3020 RMK AO2

More Conditions Fewer Conditions

10-Day Weather Forecast

Almanac

Astronomy

Dec. 19, 2014 Rise Set
Actual Time
Civil Twilight
Nautical Twilight
Astronomical Twilight
Moon
Length of Visible Light
Length of Day
Tomorrow will be .
, % of the Moon is Illuminated

Today's Extremes

State Highs State Lows

Community

WunderPhotos

Upload Photos

1,779,001 photos uploaded!

WunderBlogs® & News

Nearby

Air Quality

  Air Quality AQ Index Pollutant
Not available.

Snow Depth

Station Depth Elevation

Earthquake Activity

City Distance Mag. Time & Date
Minimum magnitude displayed is 2.5.

Coastal Water Temperatures

Place Temperature

Nearby Weather Stations